sensor_id;sensor_type;location;lat;lon;timestamp;P1;durP1;ratioP1;P2;durP2;ratioP2
32082;SDS011;18597;48.328;7.932;2023-05-14T00:02:07;7.77;;;7.27;;
32082;SDS011;18597;48.328;7.932;2023-05-14T00:04:33;7.03;;;6.53;;
32082;SDS011;18597;48.328;7.932;2023-05-14T00:06:59;6.90;;;6.33;;
32082;SDS011;18597;48.328;7.932;2023-05-14T00:09:25;7.47;;;6.90;;
32082;SDS011;18597;48.328;7.932;2023-05-14T00:11:51;6.63;;;6.23;;
32082;SDS011;18597;48.328;7.932;2023-05-14T00:14:17;7.20;;;6.70;;
32082;SDS011;18597;48.328;7.932;2023-05-14T00:16:42;7.87;;;7.17;;
32082;SDS011;18597;48.328;7.932;2023-05-14T00:19:08;7.70;;;7.10;;
32082;SDS011;18597;48.328;7.932;2023-05-14T00:21:34;7.23;;;6.63;;
32082;SDS011;18597;48.328;7.932;2023-05-14T00:24:00;8.43;;;7.70;;
32082;SDS011;18597;48.328;7.932;2023-05-14T00:26:25;8.70;;;7.90;;
32082;SDS011;18597;48.328;7.932;2023-05-14T00:28:51;8.37;;;7.53;;
32082;SDS011;18597;48.328;7.932;2023-05-14T00:31:17;8.33;;;7.33;;
32082;SDS011;18597;48.328;7.932;2023-05-14T00:33:43;7.93;;;7.30;;
32082;SDS011;18597;48.328;7.932;2023-05-14T00:36:08;8.73;;;8.03;;
32082;SDS011;18597;48.328;7.932;2023-05-14T00:38:34;6.97;;;6.47;;
32082;SDS011;18597;48.328;7.932;2023-05-14T00:41:00;7.63;;;7.03;;
32082;SDS011;18597;48.328;7.932;2023-05-14T00:43:26;12.73;;;6.60;;
32082;SDS011;18597;48.328;7.932;2023-05-14T00:45:52;10.83;;;8.47;;
32082;SDS011;18597;48.328;7.932;2023-05-14T00:48:20;8.00;;;7.30;;
32082;SDS011;18597;48.328;7.932;2023-05-14T00:50:47;10.20;;;8.03;;
32082;SDS011;18597;48.328;7.932;2023-05-14T00:53:14;12.10;;;7.20;;
32082;SDS011;18597;48.328;7.932;2023-05-14T00:55:42;8.90;;;7.33;;
32082;SDS011;18597;48.328;7.932;2023-05-14T00:58:12;7.23;;;6.57;;
32082;SDS011;18597;48.328;7.932;2023-05-14T01:00:38;7.10;;;6.70;;
32082;SDS011;18597;48.328;7.932;2023-05-14T01:03:05;7.87;;;7.27;;
32082;SDS011;18597;48.328;7.932;2023-05-14T01:05:35;8.00;;;7.20;;
32082;SDS011;18597;48.328;7.932;2023-05-14T01:17:45;9.50;;;8.50;;
32082;SDS011;18597;48.328;7.932;2023-05-14T01:20:19;8.23;;;7.60;;
32082;SDS011;18597;48.328;7.932;2023-05-14T01:22:46;8.67;;;7.87;;
32082;SDS011;18597;48.328;7.932;2023-05-14T01:25:12;10.30;;;7.90;;
32082;SDS011;18597;48.328;7.932;2023-05-14T01:30:39;9.27;;;8.30;;
32082;SDS011;18597;48.328;7.932;2023-05-14T01:33:23;9.13;;;8.33;;
32082;SDS011;18597;48.328;7.932;2023-05-14T01:35:52;9.47;;;8.43;;
32082;SDS011;18597;48.328;7.932;2023-05-14T01:38:19;10.77;;;7.70;;
32082;SDS011;18597;48.328;7.932;2023-05-14T01:40:47;8.00;;;7.40;;
32082;SDS011;18597;48.328;7.932;2023-05-14T01:43:14;8.50;;;7.77;;
32082;SDS011;18597;48.328;7.932;2023-05-14T01:45:42;8.90;;;8.10;;
32082;SDS011;18597;48.328;7.932;2023-05-14T01:48:08;10.30;;;9.20;;
32082;SDS011;18597;48.328;7.932;2023-05-14T01:50:33;10.77;;;8.70;;
32082;SDS011;18597;48.328;7.932;2023-05-14T01:52:59;9.80;;;8.80;;
32082;SDS011;18597;48.328;7.932;2023-05-14T01:55:25;8.47;;;7.67;;
32082;SDS011;18597;48.328;7.932;2023-05-14T01:57:51;10.03;;;9.00;;
32082;SDS011;18597;48.328;7.932;2023-05-14T02:00:18;8.80;;;8.03;;
32082;SDS011;18597;48.328;7.932;2023-05-14T02:02:45;9.27;;;8.33;;
32082;SDS011;18597;48.328;7.932;2023-05-14T02:05:11;7.93;;;7.20;;
32082;SDS011;18597;48.328;7.932;2023-05-14T02:07:38;8.37;;;7.07;;
32082;SDS011;18597;48.328;7.932;2023-05-14T02:10:04;7.33;;;6.70;;
32082;SDS011;18597;48.328;7.932;2023-05-14T02:12:31;9.13;;;8.03;;
32082;SDS011;18597;48.328;7.932;2023-05-14T02:14:57;8.67;;;7.80;;
32082;SDS011;18597;48.328;7.932;2023-05-14T02:17:23;7.83;;;7.13;;
32082;SDS011;18597;48.328;7.932;2023-05-14T02:19:50;22.83;;;7.43;;
32082;SDS011;18597;48.328;7.932;2023-05-14T02:22:16;7.43;;;6.90;;
32082;SDS011;18597;48.328;7.932;2023-05-14T02:24:42;7.73;;;6.87;;
32082;SDS011;18597;48.328;7.932;2023-05-14T02:27:08;7.97;;;7.40;;
32082;SDS011;18597;48.328;7.932;2023-05-14T02:29:33;7.57;;;6.83;;
32082;SDS011;18597;48.328;7.932;2023-05-14T02:31:59;8.53;;;7.10;;
32082;SDS011;18597;48.328;7.932;2023-05-14T02:34:25;6.50;;;6.00;;
32082;SDS011;18597;48.328;7.932;2023-05-14T02:36:51;6.90;;;6.37;;
32082;SDS011;18597;48.328;7.932;2023-05-14T02:39:16;7.77;;;6.90;;
32082;SDS011;18597;48.328;7.932;2023-05-14T02:41:42;7.53;;;6.87;;
32082;SDS011;18597;48.328;7.932;2023-05-14T02:44:08;7.33;;;6.63;;
32082;SDS011;18597;48.328;7.932;2023-05-14T02:46:34;7.60;;;7.03;;
32082;SDS011;18597;48.328;7.932;2023-05-14T02:49:00;8.50;;;7.70;;
32082;SDS011;18597;48.328;7.932;2023-05-14T02:51:27;8.17;;;6.57;;
32082;SDS011;18597;48.328;7.932;2023-05-14T02:53:53;6.80;;;6.30;;
32082;SDS011;18597;48.328;7.932;2023-05-14T02:56:18;8.13;;;6.40;;
32082;SDS011;18597;48.328;7.932;2023-05-14T02:58:45;7.53;;;6.93;;
32082;SDS011;18597;48.328;7.932;2023-05-14T03:01:11;7.10;;;6.50;;
32082;SDS011;18597;48.328;7.932;2023-05-14T03:03:37;7.87;;;7.13;;
32082;SDS011;18597;48.328;7.932;2023-05-14T03:06:03;8.17;;;7.20;;
32082;SDS011;18597;48.328;7.932;2023-05-14T03:08:29;7.30;;;6.80;;
32082;SDS011;18597;48.328;7.932;2023-05-14T03:10:55;7.30;;;6.10;;
32082;SDS011;18597;48.328;7.932;2023-05-14T03:13:21;8.87;;;7.97;;
32082;SDS011;18597;48.328;7.932;2023-05-14T03:15:47;7.87;;;7.07;;
32082;SDS011;18597;48.328;7.932;2023-05-14T03:18:13;7.17;;;6.60;;
32082;SDS011;18597;48.328;7.932;2023-05-14T03:20:39;7.23;;;6.53;;
32082;SDS011;18597;48.328;7.932;2023-05-14T03:23:05;9.17;;;6.20;;
32082;SDS011;18597;48.328;7.932;2023-05-14T03:25:31;7.93;;;7.33;;
32082;SDS011;18597;48.328;7.932;2023-05-14T03:27:58;9.00;;;7.90;;
32082;SDS011;18597;48.328;7.932;2023-05-14T03:30:24;11.63;;;6.93;;
32082;SDS011;18597;48.328;7.932;2023-05-14T03:32:50;6.90;;;6.30;;
32082;SDS011;18597;48.328;7.932;2023-05-14T03:35:16;7.43;;;6.73;;
32082;SDS011;18597;48.328;7.932;2023-05-14T03:37:42;7.57;;;6.83;;
32082;SDS011;18597;48.328;7.932;2023-05-14T03:40:08;7.93;;;7.23;;
32082;SDS011;18597;48.328;7.932;2023-05-14T03:42:34;7.27;;;6.67;;
32082;SDS011;18597;48.328;7.932;2023-05-14T03:45:00;8.20;;;7.33;;
32082;SDS011;18597;48.328;7.932;2023-05-14T03:47:25;6.87;;;6.37;;
32082;SDS011;18597;48.328;7.932;2023-05-14T03:49:51;8.13;;;6.27;;
32082;SDS011;18597;48.328;7.932;2023-05-14T03:52:17;8.53;;;6.50;;
32082;SDS011;18597;48.328;7.932;2023-05-14T03:54:43;8.07;;;7.57;;
32082;SDS011;18597;48.328;7.932;2023-05-14T03:57:09;6.80;;;6.20;;
32082;SDS011;18597;48.328;7.932;2023-05-14T03:59:35;8.23;;;7.63;;
32082;SDS011;18597;48.328;7.932;2023-05-14T04:02:00;8.43;;;7.72;;
32082;SDS011;18597;48.328;7.932;2023-05-14T04:04:26;7.80;;;7.20;;
32082;SDS011;18597;48.328;7.932;2023-05-14T04:06:52;7.83;;;7.13;;
32082;SDS011;18597;48.328;7.932;2023-05-14T04:09:18;9.60;;;6.90;;
32082;SDS011;18597;48.328;7.932;2023-05-14T04:11:44;7.70;;;7.00;;
32082;SDS011;18597;48.328;7.932;2023-05-14T04:14:10;7.10;;;6.60;;
32082;SDS011;18597;48.328;7.932;2023-05-14T04:16:36;7.60;;;6.90;;
32082;SDS011;18597;48.328;7.932;2023-05-14T04:19:02;7.30;;;6.07;;
32082;SDS011;18597;48.328;7.932;2023-05-14T04:21:29;6.47;;;5.97;;
32082;SDS011;18597;48.328;7.932;2023-05-14T04:23:55;7.00;;;6.50;;
32082;SDS011;18597;48.328;7.932;2023-05-14T04:26:21;7.40;;;6.87;;
32082;SDS011;18597;48.328;7.932;2023-05-14T04:28:47;6.53;;;5.90;;
32082;SDS011;18597;48.328;7.932;2023-05-14T04:36:54;6.20;;;5.80;;
32082;SDS011;18597;48.328;7.932;2023-05-14T04:39:20;7.17;;;6.77;;
32082;SDS011;18597;48.328;7.932;2023-05-14T04:41:46;7.40;;;6.87;;
32082;SDS011;18597;48.328;7.932;2023-05-14T04:44:12;7.43;;;6.73;;
32082;SDS011;18597;48.328;7.932;2023-05-14T04:46:38;7.03;;;6.53;;
32082;SDS011;18597;48.328;7.932;2023-05-14T04:49:03;5.60;;;5.30;;
32082;SDS011;18597;48.328;7.932;2023-05-14T04:51:29;7.30;;;6.80;;
32082;SDS011;18597;48.328;7.932;2023-05-14T04:56:46;6.80;;;6.30;;
32082;SDS011;18597;48.328;7.932;2023-05-14T04:59:12;8.83;;;6.40;;
32082;SDS011;18597;48.328;7.932;2023-05-14T05:01:38;6.60;;;6.10;;
32082;SDS011;18597;48.328;7.932;2023-05-14T05:04:04;6.90;;;6.47;;
32082;SDS011;18597;48.328;7.932;2023-05-14T05:06:30;7.57;;;6.97;;
32082;SDS011;18597;48.328;7.932;2023-05-14T05:08:56;11.00;;;6.00;;
32082;SDS011;18597;48.328;7.932;2023-05-14T05:11:22;7.80;;;7.10;;
32082;SDS011;18597;48.328;7.932;2023-05-14T05:13:49;10.60;;;7.47;;
32082;SDS011;18597;48.328;7.932;2023-05-14T05:19:07;10.70;;;7.70;;
32082;SDS011;18597;48.328;7.932;2023-05-14T05:21:33;9.70;;;7.10;;
32082;SDS011;18597;48.328;7.932;2023-05-14T05:24:00;7.90;;;6.60;;
32082;SDS011;18597;48.328;7.932;2023-05-14T05:29:18;6.70;;;6.10;;
32082;SDS011;18597;48.328;7.932;2023-05-14T05:31:43;7.60;;;6.40;;
32082;SDS011;18597;48.328;7.932;2023-05-14T05:34:09;8.10;;;6.43;;
32082;SDS011;18597;48.328;7.932;2023-05-14T05:43:15;4.80;;;4.37;;
32082;SDS011;18597;48.328;7.932;2023-05-14T05:45:41;6.73;;;6.03;;
32082;SDS011;18597;48.328;7.932;2023-05-14T05:48:07;6.53;;;5.97;;
32082;SDS011;18597;48.328;7.932;2023-05-14T05:50:33;5.50;;;5.20;;
32082;SDS011;18597;48.328;7.932;2023-05-14T05:52:59;5.20;;;5.00;;
32082;SDS011;18597;48.328;7.932;2023-05-14T05:55:26;5.67;;;5.17;;
32082;SDS011;18597;48.328;7.932;2023-05-14T05:57:52;6.67;;;6.10;;
32082;SDS011;18597;48.328;7.932;2023-05-14T06:00:19;5.23;;;4.73;;
32082;SDS011;18597;48.328;7.932;2023-05-14T06:05:38;5.10;;;4.90;;
32082;SDS011;18597;48.328;7.932;2023-05-14T06:08:05;5.43;;;4.97;;
32082;SDS011;18597;48.328;7.932;2023-05-14T06:10:31;5.07;;;4.87;;
32082;SDS011;18597;48.328;7.932;2023-05-14T06:18:40;5.70;;;5.20;;
32082;SDS011;18597;48.328;7.932;2023-05-14T06:21:08;6.00;;;5.63;;
32082;SDS011;18597;48.328;7.932;2023-05-14T06:23:34;4.90;;;4.50;;
32082;SDS011;18597;48.328;7.932;2023-05-14T06:26:01;6.10;;;4.90;;
32082;SDS011;18597;48.328;7.932;2023-05-14T06:28:27;5.13;;;4.80;;
32082;SDS011;18597;48.328;7.932;2023-05-14T06:30:53;6.03;;;5.60;;
32082;SDS011;18597;48.328;7.932;2023-05-14T06:33:21;9.93;;;5.27;;
32082;SDS011;18597;48.328;7.932;2023-05-14T06:35:53;6.20;;;5.70;;
32082;SDS011;18597;48.328;7.932;2023-05-14T06:38:19;5.90;;;5.53;;
32082;SDS011;18597;48.328;7.932;2023-05-14T06:40:45;5.57;;;5.07;;
32082;SDS011;18597;48.328;7.932;2023-05-14T06:43:11;4.90;;;4.60;;
32082;SDS011;18597;48.328;7.932;2023-05-14T06:45:38;6.03;;;5.37;;
32082;SDS011;18597;48.328;7.932;2023-05-14T06:50:55;5.67;;;5.27;;
32082;SDS011;18597;48.328;7.932;2023-05-14T06:53:21;5.70;;;5.40;;
32082;SDS011;18597;48.328;7.932;2023-05-14T06:55:47;6.37;;;5.87;;
32082;SDS011;18597;48.328;7.932;2023-05-14T06:58:14;6.10;;;5.63;;
32082;SDS011;18597;48.328;7.932;2023-05-14T07:00:40;4.90;;;4.70;;
32082;SDS011;18597;48.328;7.932;2023-05-14T07:03:07;5.63;;;5.23;;
32082;SDS011;18597;48.328;7.932;2023-05-14T07:05:33;8.33;;;6.00;;
32082;SDS011;18597;48.328;7.932;2023-05-14T07:07:58;9.10;;;5.07;;
32082;SDS011;18597;48.328;7.932;2023-05-14T07:10:24;5.07;;;4.77;;
32082;SDS011;18597;48.328;7.932;2023-05-14T07:12:53;5.20;;;4.87;;
32082;SDS011;18597;48.328;7.932;2023-05-14T07:15:19;7.10;;;3.50;;
32082;SDS011;18597;48.328;7.932;2023-05-14T07:17:45;4.83;;;4.53;;
32082;SDS011;18597;48.328;7.932;2023-05-14T07:20:11;4.17;;;3.97;;
32082;SDS011;18597;48.328;7.932;2023-05-14T07:22:38;4.20;;;3.87;;
32082;SDS011;18597;48.328;7.932;2023-05-14T07:25:04;5.07;;;3.67;;
32082;SDS011;18597;48.328;7.932;2023-05-14T07:27:31;4.77;;;2.90;;
32082;SDS011;18597;48.328;7.932;2023-05-14T07:29:57;2.90;;;2.67;;
32082;SDS011;18597;48.328;7.932;2023-05-14T07:32:27;3.15;;;3.15;;
32082;SDS011;18597;48.328;7.932;2023-05-14T07:34:58;3.00;;;2.90;;
32082;SDS011;18597;48.328;7.932;2023-05-14T07:37:25;2.58;;;2.38;;
32082;SDS011;18597;48.328;7.932;2023-05-14T07:39:51;2.63;;;2.63;;
32082;SDS011;18597;48.328;7.932;2023-05-14T07:42:18;2.25;;;2.22;;
32082;SDS011;18597;48.328;7.932;2023-05-14T07:44:44;2.15;;;2.15;;
32082;SDS011;18597;48.328;7.932;2023-05-14T07:47:10;1.85;;;1.75;;
32082;SDS011;18597;48.328;7.932;2023-05-14T07:52:28;2.65;;;2.55;;
32082;SDS011;18597;48.328;7.932;2023-05-14T07:54:54;4.22;;;2.22;;
32082;SDS011;18597;48.328;7.932;2023-05-14T07:57:22;2.70;;;2.70;;
32082;SDS011;18597;48.328;7.932;2023-05-14T07:59:48;3.05;;;2.95;;
32082;SDS011;18597;48.328;7.932;2023-05-14T08:02:14;3.60;;;3.50;;
32082;SDS011;18597;48.328;7.932;2023-05-14T08:04:40;4.37;;;3.60;;
32082;SDS011;18597;48.328;7.932;2023-05-14T08:09:58;5.80;;;4.83;;
32082;SDS011;18597;48.328;7.932;2023-05-14T08:12:24;3.87;;;3.67;;
32082;SDS011;18597;48.328;7.932;2023-05-14T08:14:55;5.27;;;4.77;;
32082;SDS011;18597;48.328;7.932;2023-05-14T08:17:22;4.60;;;4.40;;
32082;SDS011;18597;48.328;7.932;2023-05-14T08:19:48;7.93;;;3.93;;
32082;SDS011;18597;48.328;7.932;2023-05-14T08:25:07;5.50;;;5.07;;
32082;SDS011;18597;48.328;7.932;2023-05-14T08:30:30;5.40;;;5.10;;
32082;SDS011;18597;48.328;7.932;2023-05-14T08:32:57;5.63;;;5.37;;
32082;SDS011;18597;48.328;7.932;2023-05-14T08:35:23;6.43;;;6.10;;
32082;SDS011;18597;48.328;7.932;2023-05-14T08:37:50;5.27;;;5.07;;
32082;SDS011;18597;48.328;7.932;2023-05-14T08:46:40;6.20;;;5.87;;
32082;SDS011;18597;48.328;7.932;2023-05-14T08:52:17;5.00;;;4.70;;
32082;SDS011;18597;48.328;7.932;2023-05-14T08:57:39;5.67;;;5.27;;
32082;SDS011;18597;48.328;7.932;2023-05-14T09:00:05;4.93;;;4.73;;
32082;SDS011;18597;48.328;7.932;2023-05-14T09:02:33;5.80;;;5.30;;
32082;SDS011;18597;48.328;7.932;2023-05-14T09:05:00;4.83;;;4.50;;
32082;SDS011;18597;48.328;7.932;2023-05-14T09:07:27;4.80;;;4.60;;
32082;SDS011;18597;48.328;7.932;2023-05-14T09:09:54;4.80;;;4.53;;
32082;SDS011;18597;48.328;7.932;2023-05-14T09:12:20;4.53;;;4.23;;
32082;SDS011;18597;48.328;7.932;2023-05-14T09:14:48;5.20;;;4.80;;
32082;SDS011;18597;48.328;7.932;2023-05-14T09:17:16;3.77;;;3.63;;
32082;SDS011;18597;48.328;7.932;2023-05-14T09:19:44;4.57;;;4.37;;
32082;SDS011;18597;48.328;7.932;2023-05-14T09:25:07;4.40;;;4.10;;
32082;SDS011;18597;48.328;7.932;2023-05-14T09:27:36;4.73;;;4.40;;
32082;SDS011;18597;48.328;7.932;2023-05-14T09:30:03;3.93;;;3.83;;
32082;SDS011;18597;48.328;7.932;2023-05-14T09:32:35;5.13;;;4.93;;
32082;SDS011;18597;48.328;7.932;2023-05-14T09:35:11;3.63;;;3.43;;
32082;SDS011;18597;48.328;7.932;2023-05-14T09:37:41;6.03;;;5.63;;
32082;SDS011;18597;48.328;7.932;2023-05-14T09:40:10;4.80;;;4.50;;
32082;SDS011;18597;48.328;7.932;2023-05-14T09:45:28;4.63;;;4.30;;
32082;SDS011;18597;48.328;7.932;2023-05-14T09:47:55;4.73;;;4.33;;
32082;SDS011;18597;48.328;7.932;2023-05-14T09:50:25;3.73;;;3.60;;
32082;SDS011;18597;48.328;7.932;2023-05-14T09:52:53;4.20;;;4.00;;
32082;SDS011;18597;48.328;7.932;2023-05-14T09:55:20;5.00;;;4.53;;
32082;SDS011;18597;48.328;7.932;2023-05-14T10:00:38;4.93;;;4.63;;
32082;SDS011;18597;48.328;7.932;2023-05-14T10:03:07;4.23;;;4.00;;
32082;SDS011;18597;48.328;7.932;2023-05-14T10:05:34;3.73;;;3.63;;
32082;SDS011;18597;48.328;7.932;2023-05-14T10:08:03;3.90;;;3.80;;
32082;SDS011;18597;48.328;7.932;2023-05-14T10:10:39;4.20;;;3.77;;
32082;SDS011;18597;48.328;7.932;2023-05-14T10:13:08;4.10;;;3.90;;
32082;SDS011;18597;48.328;7.932;2023-05-14T10:15:39;5.60;;;3.80;;
32082;SDS011;18597;48.328;7.932;2023-05-14T10:18:23;3.63;;;3.43;;
32082;SDS011;18597;48.328;7.932;2023-05-14T10:20:52;3.70;;;3.50;;
32082;SDS011;18597;48.328;7.932;2023-05-14T10:23:28;3.37;;;3.27;;
32082;SDS011;18597;48.328;7.932;2023-05-14T10:25:54;20.33;;;4.10;;
32082;SDS011;18597;48.328;7.932;2023-05-14T10:28:23;3.17;;;2.97;;
32082;SDS011;18597;48.328;7.932;2023-05-14T10:33:48;3.07;;;2.97;;
32082;SDS011;18597;48.328;7.932;2023-05-14T10:36:16;2.77;;;2.77;;
32082;SDS011;18597;48.328;7.932;2023-05-14T10:38:57;3.07;;;2.23;;
32082;SDS011;18597;48.328;7.932;2023-05-14T10:41:27;3.17;;;3.07;;
32082;SDS011;18597;48.328;7.932;2023-05-14T10:46:44;3.03;;;2.93;;
32082;SDS011;18597;48.328;7.932;2023-05-14T10:49:11;4.53;;;4.33;;
32082;SDS011;18597;48.328;7.932;2023-05-14T10:51:37;3.60;;;3.50;;
32082;SDS011;18597;48.328;7.932;2023-05-14T10:54:05;4.07;;;3.97;;
32082;SDS011;18597;48.328;7.932;2023-05-14T10:56:32;3.33;;;3.23;;
32082;SDS011;18597;48.328;7.932;2023-05-14T10:58:59;3.30;;;3.20;;
32082;SDS011;18597;48.328;7.932;2023-05-14T11:04:17;5.63;;;4.83;;
32082;SDS011;18597;48.328;7.932;2023-05-14T11:06:47;3.93;;;3.83;;
32082;SDS011;18597;48.328;7.932;2023-05-14T11:09:13;3.93;;;3.73;;
32082;SDS011;18597;48.328;7.932;2023-05-14T11:11:41;4.27;;;4.07;;
32082;SDS011;18597;48.328;7.932;2023-05-14T11:14:10;4.43;;;4.23;;
32082;SDS011;18597;48.328;7.932;2023-05-14T11:16:38;4.70;;;4.50;;
32082;SDS011;18597;48.328;7.932;2023-05-14T11:19:06;4.90;;;4.60;;
32082;SDS011;18597;48.328;7.932;2023-05-14T11:36:19;5.43;;;4.67;;
32082;SDS011;18597;48.328;7.932;2023-05-14T11:38:46;3.53;;;3.43;;
32082;SDS011;18597;48.328;7.932;2023-05-14T11:41:13;4.57;;;4.37;;
32082;SDS011;18597;48.328;7.932;2023-05-14T11:43:39;4.80;;;4.53;;
32082;SDS011;18597;48.328;7.932;2023-05-14T11:46:05;4.97;;;4.73;;
32082;SDS011;18597;48.328;7.932;2023-05-14T11:48:31;4.10;;;3.83;;
32082;SDS011;18597;48.328;7.932;2023-05-14T11:50:57;3.83;;;3.73;;
32082;SDS011;18597;48.328;7.932;2023-05-14T11:53:23;4.03;;;3.63;;
32082;SDS011;18597;48.328;7.932;2023-05-14T11:55:53;3.50;;;3.40;;
32082;SDS011;18597;48.328;7.932;2023-05-14T11:58:21;3.20;;;3.10;;
32082;SDS011;18597;48.328;7.932;2023-05-14T12:00:49;3.53;;;3.43;;
32082;SDS011;18597;48.328;7.932;2023-05-14T12:03:17;3.57;;;3.37;;
32082;SDS011;18597;48.328;7.932;2023-05-14T12:05:56;3.97;;;3.77;;
32082;SDS011;18597;48.328;7.932;2023-05-14T12:08:26;3.40;;;3.30;;
32082;SDS011;18597;48.328;7.932;2023-05-14T12:10:54;3.37;;;3.17;;
32082;SDS011;18597;48.328;7.932;2023-05-14T12:13:25;3.43;;;3.33;;
32082;SDS011;18597;48.328;7.932;2023-05-14T12:15:56;3.50;;;3.40;;
32082;SDS011;18597;48.328;7.932;2023-05-14T12:18:24;3.20;;;3.13;;
32082;SDS011;18597;48.328;7.932;2023-05-14T12:20:54;6.90;;;2.87;;
32082;SDS011;18597;48.328;7.932;2023-05-14T12:23:28;3.57;;;3.33;;
32082;SDS011;18597;48.328;7.932;2023-05-14T12:25:59;3.60;;;3.50;;
32082;SDS011;18597;48.328;7.932;2023-05-14T12:28:27;3.40;;;3.33;;
32082;SDS011;18597;48.328;7.932;2023-05-14T12:30:55;3.80;;;3.40;;
32082;SDS011;18597;48.328;7.932;2023-05-14T12:33:21;3.33;;;3.13;;
32082;SDS011;18597;48.328;7.932;2023-05-14T12:35:48;3.97;;;3.67;;
32082;SDS011;18597;48.328;7.932;2023-05-14T12:38:14;3.43;;;3.13;;
32082;SDS011;18597;48.328;7.932;2023-05-14T12:40:40;6.70;;;3.53;;
32082;SDS011;18597;48.328;7.932;2023-05-14T12:43:06;3.40;;;3.30;;
32082;SDS011;18597;48.328;7.932;2023-05-14T12:45:31;3.63;;;3.33;;
32082;SDS011;18597;48.328;7.932;2023-05-14T12:47:57;3.33;;;3.23;;
32082;SDS011;18597;48.328;7.932;2023-05-14T12:50:23;2.90;;;2.80;;
32082;SDS011;18597;48.328;7.932;2023-05-14T12:52:49;3.40;;;3.10;;
32082;SDS011;18597;48.328;7.932;2023-05-14T12:55:15;2.60;;;2.60;;
32082;SDS011;18597;48.328;7.932;2023-05-14T12:57:41;3.17;;;3.13;;
32082;SDS011;18597;48.328;7.932;2023-05-14T13:00:07;3.37;;;3.27;;
32082;SDS011;18597;48.328;7.932;2023-05-14T13:02:35;3.17;;;3.17;;
32082;SDS011;18597;48.328;7.932;2023-05-14T13:05:01;4.20;;;3.00;;
32082;SDS011;18597;48.328;7.932;2023-05-14T13:07:27;3.10;;;3.00;;
32082;SDS011;18597;48.328;7.932;2023-05-14T13:09:54;3.63;;;3.43;;
32082;SDS011;18597;48.328;7.932;2023-05-14T13:12:21;3.03;;;2.73;;
32082;SDS011;18597;48.328;7.932;2023-05-14T13:14:48;3.43;;;3.23;;
32082;SDS011;18597;48.328;7.932;2023-05-14T13:17:14;3.70;;;3.50;;
32082;SDS011;18597;48.328;7.932;2023-05-14T13:19:40;3.47;;;3.23;;
32082;SDS011;18597;48.328;7.932;2023-05-14T13:22:05;3.43;;;3.33;;
32082;SDS011;18597;48.328;7.932;2023-05-14T13:24:32;2.53;;;2.53;;
32082;SDS011;18597;48.328;7.932;2023-05-14T13:26:58;2.30;;;2.30;;
32082;SDS011;18597;48.328;7.932;2023-05-14T13:29:24;2.70;;;2.50;;
32082;SDS011;18597;48.328;7.932;2023-05-14T13:31:53;3.20;;;3.10;;
32082;SDS011;18597;48.328;7.932;2023-05-14T13:34:19;4.00;;;3.57;;
32082;SDS011;18597;48.328;7.932;2023-05-14T13:36:45;3.03;;;2.93;;
32082;SDS011;18597;48.328;7.932;2023-05-14T13:39:13;3.33;;;3.10;;
32082;SDS011;18597;48.328;7.932;2023-05-14T13:41:39;3.33;;;3.23;;
32082;SDS011;18597;48.328;7.932;2023-05-14T13:44:05;3.07;;;2.97;;
32082;SDS011;18597;48.328;7.932;2023-05-14T13:46:31;2.53;;;2.47;;
32082;SDS011;18597;48.328;7.932;2023-05-14T13:48:56;3.00;;;2.67;;
32082;SDS011;18597;48.328;7.932;2023-05-14T13:51:22;2.60;;;2.60;;
32082;SDS011;18597;48.328;7.932;2023-05-14T13:53:48;2.80;;;2.60;;
32082;SDS011;18597;48.328;7.932;2023-05-14T13:56:14;2.00;;;2.00;;
32082;SDS011;18597;48.328;7.932;2023-05-14T13:58:40;2.40;;;2.40;;
32082;SDS011;18597;48.328;7.932;2023-05-14T14:01:05;2.33;;;2.33;;
32082;SDS011;18597;48.328;7.932;2023-05-14T14:03:31;3.40;;;3.10;;
32082;SDS011;18597;48.328;7.932;2023-05-14T14:05:57;2.70;;;2.70;;
32082;SDS011;18597;48.328;7.932;2023-05-14T14:08:23;2.57;;;2.57;;
32082;SDS011;18597;48.328;7.932;2023-05-14T14:10:49;3.03;;;2.80;;
32082;SDS011;18597;48.328;7.932;2023-05-14T14:13:15;2.90;;;2.90;;
32082;SDS011;18597;48.328;7.932;2023-05-14T14:15:41;3.10;;;2.90;;
32082;SDS011;18597;48.328;7.932;2023-05-14T14:18:07;3.60;;;3.30;;
32082;SDS011;18597;48.328;7.932;2023-05-14T14:20:33;2.87;;;2.77;;
32082;SDS011;18597;48.328;7.932;2023-05-14T14:22:59;2.30;;;2.30;;
32082;SDS011;18597;48.328;7.932;2023-05-14T14:25:25;2.87;;;2.77;;
32082;SDS011;18597;48.328;7.932;2023-05-14T14:27:51;2.70;;;2.60;;
32082;SDS011;18597;48.328;7.932;2023-05-14T14:30:17;3.03;;;2.83;;
32082;SDS011;18597;48.328;7.932;2023-05-14T14:32:44;2.63;;;2.53;;
32082;SDS011;18597;48.328;7.932;2023-05-14T14:35:12;3.03;;;2.93;;
32082;SDS011;18597;48.328;7.932;2023-05-14T14:37:41;3.33;;;2.97;;
32082;SDS011;18597;48.328;7.932;2023-05-14T14:40:09;2.60;;;2.50;;
32082;SDS011;18597;48.328;7.932;2023-05-14T14:42:36;2.83;;;2.73;;
32082;SDS011;18597;48.328;7.932;2023-05-14T14:45:03;2.90;;;2.80;;
32082;SDS011;18597;48.328;7.932;2023-05-14T14:47:29;2.70;;;2.60;;
32082;SDS011;18597;48.328;7.932;2023-05-14T14:49:55;2.50;;;2.40;;
32082;SDS011;18597;48.328;7.932;2023-05-14T14:52:22;3.83;;;2.90;;
32082;SDS011;18597;48.328;7.932;2023-05-14T14:54:49;2.90;;;2.80;;
32082;SDS011;18597;48.328;7.932;2023-05-14T14:57:15;2.60;;;2.60;;
32082;SDS011;18597;48.328;7.932;2023-05-14T14:59:41;2.90;;;2.80;;
32082;SDS011;18597;48.328;7.932;2023-05-14T15:02:07;2.47;;;2.47;;
32082;SDS011;18597;48.328;7.932;2023-05-14T15:04:34;2.53;;;2.30;;
32082;SDS011;18597;48.328;7.932;2023-05-14T15:07:02;2.37;;;2.37;;
32082;SDS011;18597;48.328;7.932;2023-05-14T15:09:30;3.27;;;3.07;;
32082;SDS011;18597;48.328;7.932;2023-05-14T15:11:56;2.43;;;2.43;;
32082;SDS011;18597;48.328;7.932;2023-05-14T15:14:22;2.67;;;2.57;;
32082;SDS011;18597;48.328;7.932;2023-05-14T15:16:47;3.07;;;2.97;;
32082;SDS011;18597;48.328;7.932;2023-05-14T15:19:13;2.23;;;2.13;;
32082;SDS011;18597;48.328;7.932;2023-05-14T15:21:39;3.23;;;3.03;;
32082;SDS011;18597;48.328;7.932;2023-05-14T15:24:05;2.30;;;2.30;;
32082;SDS011;18597;48.328;7.932;2023-05-14T15:26:34;2.20;;;2.10;;
32082;SDS011;18597;48.328;7.932;2023-05-14T15:29:00;2.90;;;2.80;;
32082;SDS011;18597;48.328;7.932;2023-05-14T15:31:26;2.40;;;2.40;;
32082;SDS011;18597;48.328;7.932;2023-05-14T15:33:52;2.77;;;2.67;;
32082;SDS011;18597;48.328;7.932;2023-05-14T15:36:19;2.80;;;2.70;;
32082;SDS011;18597;48.328;7.932;2023-05-14T15:38:46;2.77;;;2.57;;
32082;SDS011;18597;48.328;7.932;2023-05-14T15:41:12;3.43;;;3.13;;
32082;SDS011;18597;48.328;7.932;2023-05-14T15:43:37;3.00;;;2.90;;
32082;SDS011;18597;48.328;7.932;2023-05-14T15:46:03;2.20;;;2.20;;
32082;SDS011;18597;48.328;7.932;2023-05-14T15:48:29;2.67;;;2.60;;
32082;SDS011;18597;48.328;7.932;2023-05-14T15:50:55;2.47;;;2.47;;
32082;SDS011;18597;48.328;7.932;2023-05-14T15:53:21;2.50;;;2.50;;
32082;SDS011;18597;48.328;7.932;2023-05-14T15:55:47;3.10;;;3.00;;
32082;SDS011;18597;48.328;7.932;2023-05-14T15:58:13;2.83;;;2.83;;
32082;SDS011;18597;48.328;7.932;2023-05-14T16:00:39;2.40;;;2.40;;
32082;SDS011;18597;48.328;7.932;2023-05-14T16:03:05;3.03;;;2.87;;
32082;SDS011;18597;48.328;7.932;2023-05-14T16:05:31;3.37;;;3.07;;
32082;SDS011;18597;48.328;7.932;2023-05-14T16:07:57;4.00;;;2.37;;
32082;SDS011;18597;48.328;7.932;2023-05-14T16:10:23;2.70;;;2.50;;
32082;SDS011;18597;48.328;7.932;2023-05-14T16:12:49;2.97;;;2.67;;
32082;SDS011;18597;48.328;7.932;2023-05-14T16:15:14;2.87;;;2.50;;
32082;SDS011;18597;48.328;7.932;2023-05-14T16:17:40;2.60;;;2.50;;
32082;SDS011;18597;48.328;7.932;2023-05-14T16:20:06;2.50;;;2.50;;
32082;SDS011;18597;48.328;7.932;2023-05-14T16:22:33;2.97;;;2.87;;
32082;SDS011;18597;48.328;7.932;2023-05-14T16:25:00;3.00;;;2.90;;
32082;SDS011;18597;48.328;7.932;2023-05-14T16:27:26;2.70;;;2.50;;